Aérodrome :
LOGIN :

S'inscrire | Disclaimer

   EN    FR    IT 

 










Légende :    VFR   VFR Marginal   IFR   IFR Intensif   IFR Très Intensif
Visi : 
Plafond : 
>= 8 km
>= 3000ft
5 à 8 km
1000 à 3000 ft
1500m à 5 km
500 à 1000 ft
800 à 1500m
200 à 500 ft
< 800m
< 200 ft
Symboles :   Orages  Brouillard  Fortes neiges  Fortes précipitations  Vent > 20 kt
SIGMETs :   Divers  Orages  Givrage  Turbulence  Onde Orograph.  Cendres Volcan.






- Altitude de l'aérodrome : 390 ft
- Code IATA : TMP


EFTP - Tampere-Pirkkala

DERNIER METAR :
  • 301950Z AUTO VRB01KT CAVOK M06/M09 Q1025

METARs EXPIRÉS :
  • 301920Z AUTO 00000KT CAVOK M05/M09 Q1025
  • 301850Z AUTO VRB01KT CAVOK M05/M09 Q1025
  • 301820Z AUTO VRB01KT CAVOK M04/M09 Q1024
  • 301750Z AUTO 24001KT CAVOK M03/M09 Q1024

TAF TAF EFTP
Valide du 30 à 18h jusqu'au 31 à 18h UTC


301737Z 3018/3118 01006KT CAVOK
BECMG 3107/3109 22013KT
TEMPO 3109/3118 22015G30KT 2000 SN BKN012



MET'MAP, la Météo Aéronautique d'un coup d'oeil ! - Copyright ORBIFLY Décembre 2007 - Disclaimer

ORBIFLY MET'MAP TEAM :

Programmation & Développement : Alexandra Zaïnal
Sur une idée originale de : Baudouin d'Aumeries
Assistance à la programmation : Marc-Olivier Méhu
Soutien technique & logistique : Manuel Goepfert

Contact : metmap@orbifly.com




SOURCES & CREDITS :

   NOAA